Time;durP1;ratioP1;P1;durP2;ratioP2;P2;SDS_P1;SDS_P2;PMS_P1;PMS_P2;Temp;Humidity;BMP_temperature;BMP_pressure;BME280_temperature;BME280_humidity;BME280_pressure;Samples;Min_cycle;Max_cycle;Signal;HPM_P1;HPM_P2
2021/06/22 06:00:51;;;;;;;;;9.33;7.33;;;;;21.05;62.06;100761.41;5029017;23;46063;-84
2021/06/22 06:03:17;;;;;;;;;11.00;10.00;;;;;21.05;62.13;100759.63;4917191;28;45374;-84
2021/06/22 06:05:42;;;;;;;;;13.33;12.00;;;;;21.08;62.17;100768.47;4888678;28;45375;-84
2021/06/22 06:08:07;;;;;;;;;11.67;9.00;;;;;21.08;62.15;100765.81;4918606;28;45364;-84
2021/06/22 06:10:33;;;;;;;;;13.00;9.67;;;;;21.07;61.96;100775.63;4902381;29;45321;-83
2021/06/22 06:12:59;;;;;;;;;8.67;7.67;;;;;21.08;61.96;100769.38;4900218;29;46300;-83
2021/06/22 06:15:24;;;;;;;;;11.00;11.00;;;;;21.11;61.88;100782.63;4902976;29;45214;-84
2021/06/22 06:17:49;;;;;;;;;10.67;10.00;;;;;21.09;61.90;100771.09;4902967;29;45210;-82
2021/06/22 06:20:16;;;;;;;;;12.00;11.00;;;;;21.15;62.07;100781.63;4902265;29;45210;-84
2021/06/22 06:22:43;;;;;;;;;12.67;11.67;;;;;21.15;61.87;100792.31;4902437;29;45384;-84
2021/06/22 06:25:09;;;;;;;;;11.33;10.33;;;;;21.14;61.86;100779.91;4902422;29;45495;-82
2021/06/22 06:30:16;;;;;;;;;10.67;10.33;;;;;21.13;62.03;100793.31;4902187;29;45923;-82
2021/06/22 06:32:42;;;;;;;;;17.67;12.67;;;;;21.13;62.03;100779.94;4902064;29;45305;-83
2021/06/22 06:35:08;;;;;;;;;11.33;10.33;;;;;21.12;62.28;100788.88;4902233;29;45246;-82
2021/06/22 06:37:33;;;;;;;;;11.33;11.33;;;;;21.12;62.43;100786.19;4902474;29;45333;-82
2021/06/22 06:39:59;;;;;;;;;13.33;12.33;;;;;21.14;62.28;100793.25;4901754;29;45405;-83
2021/06/22 06:42:24;;;;;;;;;11.67;11.67;;;;;21.14;62.24;100795.03;4901851;29;45365;-82
2021/06/22 06:44:50;;;;;;;;;14.00;12.67;;;;;21.13;62.21;100787.97;4902249;29;45252;-82
2021/06/22 06:47:15;;;;;;;;;12.33;12.00;;;;;21.07;62.31;100778.28;4902375;29;45417;-83
2021/06/22 06:49:41;;;;;;;;;16.33;11.00;;;;;21.09;62.31;100786.28;4901939;29;46124;-82
2021/06/22 06:52:22;;;;;;;;;11.00;11.00;;;;;21.16;62.45;100787.88;4902189;29;45395;-90
2021/06/22 06:54:48;;;;;;;;;16.00;13.00;;;;;21.17;62.51;100782.47;4887591;29;45543;-89
2021/06/22 06:57:14;;;;;;;;;12.33;12.33;;;;;21.15;62.29;100792.31;4892014;29;45497;-88
2021/06/22 06:59:39;;;;;;;;;21.33;14.33;;;;;21.13;62.17;100787.97;4911597;28;45547;-87
2021/06/22 07:02:04;;;;;;;;;12.67;11.33;;;;;21.11;62.00;100784.44;4885685;29;45376;-88
2021/06/22 07:04:30;;;;;;;;;10.33;10.00;;;;;21.12;62.31;100791.53;4902821;29;45456;-88
2021/06/22 07:06:56;;;;;;;;;15.67;14.67;;;;;21.21;61.94;100804.69;4902842;29;45339;-87
2021/06/22 07:09:21;;;;;;;;;15.67;14.33;;;;;21.23;62.33;100805.50;4902856;29;45683;-87
2021/06/22 07:11:47;;;;;;;;;16.33;12.33;;;;;21.15;62.37;100795.00;4885083;29;45522;-89
2021/06/22 07:14:14;;;;;;;;;16.00;13.00;;;;;21.20;62.25;100799.34;4902394;29;45523;-88
2021/06/22 07:16:41;;;;;;;;;16.33;15.33;;;;;21.18;62.19;100799.41;4885369;29;45388;-88
2021/06/22 07:19:07;;;;;;;;;16.00;16.00;;;;;21.19;62.24;100803.84;4884929;29;47016;-89
2021/06/22 07:21:32;;;;;;;;;16.67;15.33;;;;;21.08;62.38;100790.75;4902246;29;45396;-88
2021/06/22 07:23:58;;;;;;;;;17.67;14.33;;;;;21.09;62.63;100792.50;4885294;29;45383;-87
2021/06/22 07:26:23;;;;;;;;;21.33;16.00;;;;;21.11;62.81;100787.13;4902231;29;45423;-89
2021/06/22 07:28:49;;;;;;;;;20.33;16.67;;;;;21.11;62.91;100798.66;4884724;29;47281;-88
2021/06/22 07:31:14;;;;;;;;;24.33;18.67;;;;;21.23;62.88;100812.66;4902196;29;45483;-88
2021/06/22 07:33:40;;;;;;;;;22.00;20.33;;;;;21.13;62.80;100798.66;4902056;29;45459;-87
2021/06/22 07:36:07;;;;;;;;;22.00;19.67;;;;;21.08;62.80;100790.75;4902115;29;45407;-88
2021/06/22 07:38:32;;;;;;;;;19.33;18.00;;;;;21.10;63.06;100794.25;4901909;29;45401;-87
2021/06/22 07:41:00;;;;;;;;;21.67;17.67;;;;;21.09;63.66;100787.13;4901743;29;45308;-87
2021/06/22 07:43:25;;;;;;;;;21.67;18.33;;;;;21.05;63.39;100786.34;4902325;29;45246;-88
2021/06/22 07:45:52;;;;;;;;;20.00;18.67;;;;;21.21;63.30;100806.47;4903526;29;45154;-87
2021/06/22 07:48:18;;;;;;;;;17.67;17.00;;;;;21.11;63.29;100797.81;4906316;29;46451;-88
2021/06/22 07:50:43;;;;;;;;;18.33;17.00;;;;;21.13;63.59;100799.50;4906559;29;45519;-88
2021/06/22 07:53:09;;;;;;;;;19.00;17.00;;;;;21.24;63.79;100817.06;4911355;29;45448;-88
2021/06/22 07:55:34;;;;;;;;;16.67;13.33;;;;;21.24;63.76;100809.03;4920272;28;44797;-88
2021/06/22 07:58:00;;;;;;;;;16.67;14.67;;;;;21.22;63.89;100805.53;4906009;28;46928;-89
2021/06/22 08:03:09;;;;;;;;;11.00;11.00;;;;;21.32;63.33;100817.75;4902122;29;45275;-87
2021/06/22 08:05:35;;;;;;;;;13.33;12.33;;;;;21.41;63.25;100827.31;4902682;29;45358;-87
2021/06/22 08:08:01;;;;;;;;;15.67;12.00;;;;;21.38;62.49;100814.91;4902261;29;45578;-87
2021/06/22 08:10:27;;;;;;;;;16.00;14.33;;;;;21.45;63.31;100825.47;4901798;29;45428;-89
2021/06/22 08:12:53;;;;;;;;;13.00;12.33;;;;;21.44;63.45;100824.56;4902793;29;45467;-89
2021/06/22 08:15:18;;;;;;;;;16.00;14.67;;;;;21.54;62.90;100835.00;4902349;29;45478;-88
2021/06/22 08:17:44;;;;;;;;;18.00;16.00;;;;;21.49;62.81;100821.78;4884994;29;46128;-88
2021/06/22 08:20:10;;;;;;;;;19.00;18.67;;;;;21.60;62.92;100843.75;4901628;29;45290;-88
2021/06/22 08:22:36;;;;;;;;;21.00;18.00;;;;;21.50;63.16;100823.53;4902102;29;45408;-87
2021/06/22 08:25:03;;;;;;;;;23.00;20.00;;;;;21.56;62.63;100826.03;4884464;29;45251;-90
2021/06/22 08:27:29;;;;;;;;;21.67;16.67;;;;;21.63;63.09;100832.97;4889586;29;47010;-88
2021/06/22 08:29:54;;;;;;;;;22.67;19.33;;;;;21.56;62.89;100815.34;4906388;29;45441;-87
2021/06/22 08:32:19;;;;;;;;;22.33;18.67;;;;;21.65;62.58;100827.56;4906164;29;45880;-88
2021/06/22 08:34:45;;;;;;;;;21.67;19.00;;;;;21.73;62.90;100835.38;4905553;29;45359;-88
2021/06/22 08:37:10;;;;;;;;;23.33;20.00;;;;;21.72;62.76;100825.63;4904319;29;45420;-88
2021/06/22 08:39:37;;;;;;;;;26.00;23.00;;;;;21.97;62.50;100843.69;4904061;29;45472;-87
2021/06/22 08:42:03;;;;;;;;;24.00;20.67;;;;;22.05;62.36;100828.28;4889781;29;45306;-88
2021/06/22 08:44:30;;;;;;;;;19.00;18.00;;;;;22.15;61.34;100818.16;4887418;29;45519;-90
2021/06/22 08:46:57;;;;;;;;;24.67;20.00;;;;;22.40;62.31;100806.69;4884458;29;47228;-89
2021/06/22 08:49:24;;;;;;;;;24.00;19.00;;;;;22.98;61.67;100831.69;4901039;29;46091;-90
2021/06/22 08:51:51;;;;;;;;;21.67;20.00;;;;;23.25;61.05;100829.00;4901950;29;45441;-87
2021/06/22 08:54:17;;;;;;;;;18.67;18.00;;;;;23.46;59.46;100821.16;4888993;29;45443;-88
2021/06/22 08:56:42;;;;;;;;;21.00;16.00;;;;;23.55;59.07;100822.66;4907164;29;45438;-88
2021/06/22 08:59:08;;;;;;;;;20.33;18.67;;;;;23.60;58.83;100828.72;4907483;29;45321;-87
2021/06/22 09:01:33;;;;;;;;;21.00;20.33;;;;;23.69;59.79;100838.25;4910813;29;45170;-87
2021/06/22 09:03:59;;;;;;;;;23.67;22.33;;;;;23.58;59.66;100827.88;4925174;29;44745;-88
2021/06/22 09:06:25;;;;;;;;;23.33;23.00;;;;;23.57;59.57;100830.63;4925896;29;45337;-90
2021/06/22 09:08:52;;;;;;;;;27.33;23.33;;;;;23.47;60.17;100844.41;4925997;29;44606;-87
2021/06/22 09:11:18;;;;;;;;;24.33;22.33;;;;;23.29;60.31;100836.97;4892812;29;45370;-88
2021/06/22 09:13:57;;;;;;;;;24.00;22.33;;;;;23.16;60.01;100840.03;4903935;29;45386;-90
2021/06/22 09:16:23;;;;;;;;;20.00;18.33;;;;;22.96;60.89;100832.66;4885186;29;47018;-91
2021/06/22 09:18:48;;;;;;;;;25.33;22.33;;;;;22.98;60.34;100861.19;4901456;29;45476;-90
2021/06/22 09:21:22;;;;;;;;;20.33;20.33;;;;;22.85;60.67;100867.84;4884291;29;45278;-89
2021/06/22 09:23:48;;;;;;;;;22.67;21.33;;;;;22.55;61.37;100840.16;4901552;29;45487;-88
2021/06/22 09:26:30;;;;;;;;;18.67;17.33;;;;;22.53;61.26;100855.41;4906302;29;46449;-89
2021/06/22 09:29:07;;;;;;;;;25.67;19.00;;;;;22.31;61.53;100848.06;4887323;29;45490;-88
2021/06/22 09:31:33;;;;;;;;;16.00;13.67;;;;;22.21;62.16;100849.22;4902510;29;45432;-88
2021/06/22 09:33:58;;;;;;;;;23.00;19.67;;;;;22.24;62.12;100865.22;4901595;29;45256;-88
2021/06/22 09:36:28;;;;;;;;;24.67;21.33;;;;;22.19;61.87;100875.16;4903418;29;46040;-88
2021/06/22 09:38:58;;;;;;;;;21.00;20.33;;;;;22.08;62.55;100873.66;4903366;29;45503;-89
2021/06/22 09:41:29;;;;;;;;;24.00;21.00;;;;;22.00;62.08;100872.16;4904209;29;45367;-89
2021/06/22 09:44:07;;;;;;;;;23.00;20.00;;;;;21.83;62.45;100858.31;4904216;29;45361;-88
2021/06/22 09:46:37;;;;;;;;;22.33;20.67;;;;;21.83;63.16;100874.38;4903803;29;46222;-88
2021/06/22 09:49:05;;;;;;;;;25.25;19.75;;;;;21.63;63.20;100846.34;4887054;29;46003;-90
2021/06/22 09:51:36;;;;;;;;;20.33;20.33;;;;;21.60;63.68;100850.88;4904039;29;45442;-87
2021/06/22 09:54:10;;;;;;;;;27.67;22.67;;;;;21.70;63.62;100880.97;4886372;29;45225;-87
2021/06/22 09:56:36;;;;;;;;;24.67;24.33;;;;;21.66;64.17;100893.50;4902909;29;45165;-90
2021/06/22 09:59:08;;;;;;;;;27.00;23.50;;;;;21.61;63.67;100884.75;4902829;29;45309;-88
2021/06/22 10:01:36;;;;;;;;;23.00;19.67;;;;;21.57;64.26;100894.66;4904610;28;45267;-88
2021/06/22 10:04:15;;;;;;;;;25.33;22.33;;;;;21.35;64.13;100859.56;4903510;29;45236;-90
2021/06/22 10:06:42;;;;;;;;;24.00;22.67;;;;;21.29;64.18;100871.31;4903320;29;45426;-89
2021/06/22 10:09:08;;;;;;;;;26.00;21.50;;;;;21.38;63.95;100900.47;4903181;29;45464;-88
2021/06/22 10:11:36;;;;;;;;;27.00;23.00;;;;;21.33;63.26;100905.06;4903366;29;45405;-87
2021/06/22 10:14:04;;;;;;;;;20.00;19.00;;;;;21.12;63.66;100888.66;4903194;29;45235;-87
2021/06/22 10:16:32;;;;;;;;;25.00;20.33;;;;;21.20;64.55;100923.19;4885443;29;47532;-87
2021/06/22 10:19:03;;;;;;;;;25.00;23.67;;;;;21.14;64.80;100934.94;4902784;29;45320;-89
2021/06/22 10:21:30;;;;;;;;;24.67;21.67;;;;;20.95;64.90;100923.75;4885868;29;45371;-89
2021/06/22 10:23:56;;;;;;;;;18.67;18.67;;;;;20.89;64.96;100930.13;4903053;29;45545;-89
2021/06/22 10:26:25;;;;;;;;;20.00;19.25;;;;;20.88;64.52;100944.38;4904719;29;45401;-88
2021/06/22 10:28:51;;;;;;;;;25.00;20.33;;;;;20.74;65.30;100941.13;4907808;29;45277;-88
2021/06/22 10:31:19;;;;;;;;;24.33;17.67;;;;;20.73;65.76;100950.06;4888432;29;45235;-88
2021/06/22 10:33:44;;;;;;;;;23.33;20.67;;;;;20.56;65.54;100948.66;4890361;29;45551;-89
2021/06/22 10:36:19;;;;;;;;;22.00;19.67;;;;;20.46;65.56;100948.81;4886908;29;47381;-88
2021/06/22 10:38:46;;;;;;;;;19.00;18.00;;;;;20.39;65.44;100952.53;4902716;29;45399;-88
2021/06/22 10:41:12;;;;;;;;;20.00;18.33;;;;;20.39;65.52;100963.19;4885395;29;45423;-89
2021/06/22 10:43:39;;;;;;;;;17.33;11.00;;;;;20.30;65.54;100974.97;4885753;29;45540;-88
2021/06/22 10:46:13;;;;;;;;;14.00;10.67;;;;;20.24;65.61;100991.97;4902135;29;45383;-88
2021/06/22 10:48:41;;;;;;;;;14.67;11.67;;;;;20.07;65.74;100991.38;4901846;29;45547;-89
2021/06/22 10:51:30;;;;;;;;;12.33;12.33;;;;;20.04;66.45;101011.00;4885340;29;45494;-87
2021/06/22 10:53:56;;;;;;;;;16.67;13.00;;;;;19.92;66.71;101005.88;4902610;29;45384;-89
2021/06/22 10:56:24;;;;;;;;;14.00;13.33;;;;;19.76;66.78;101001.66;4902597;29;45404;-91
2021/06/22 10:59:11;;;;;;;;;13.33;12.67;;;;;19.73;68.96;101009.75;4902502;29;45475;-90
2021/06/22 11:02:07;;;;;;;;;12.33;11.00;;;;;19.53;67.95;100992.28;4885215;29;45272;-91
2021/06/22 11:04:32;;;;;;;;;16.00;13.00;;;;;19.39;68.87;100992.50;4825623;29;45331;-88
2021/06/22 11:07:15;;;;;;;;;13.67;12.00;;;;;19.35;69.43;100992.56;4810413;29;47123;-89
2021/06/22 11:09:41;;;;;;;;;13.33;10.33;;;;;19.19;69.68;100979.44;4811254;29;45361;-89
2021/06/22 11:12:18;;;;;;;;;17.33;12.00;;;;;19.30;70.23;101003.28;4810156;29;45782;-88
2021/06/22 11:14:59;;;;;;;;;13.00;10.33;;;;;19.26;70.35;101013.13;4810374;29;45404;-89
2021/06/22 11:17:42;;;;;;;;;10.67;10.67;;;;;19.21;70.33;101007.84;4825329;29;45434;-89
2021/06/22 11:20:13;;;;;;;;;11.67;9.67;;;;;19.10;70.14;101015.06;4810592;29;45707;-89
2021/06/22 11:23:05;;;;;;;;;14.00;11.00;;;;;19.09;70.42;101018.66;4825826;29;45513;-90
2021/06/22 11:26:03;;;;;;;;;15.67;13.00;;;;;19.04;70.90;101028.47;4825915;29;45223;-90
2021/06/22 11:28:59;;;;;;;;;12.33;9.67;;;;;19.00;70.30;101032.06;4809614;29;47061;-88
2021/06/22 11:31:33;;;;;;;;;16.33;11.00;;;;;18.96;70.75;101039.22;4825169;29;45531;-89
2021/06/22 11:34:08;;;;;;;;;8.67;8.00;;;;;18.92;70.22;101042.84;4809819;29;45514;-89
2021/06/22 11:36:42;;;;;;;;;8.00;8.00;;;;;18.84;70.75;101037.63;4825758;29;45562;-90
2021/06/22 11:39:16;;;;;;;;;8.00;7.33;;;;;18.79;70.04;101031.44;4825741;29;46271;-87
2021/06/22 11:42:14;;;;;;;;;10.00;7.67;;;;;18.79;70.74;101027.00;4888275;29;45358;-88
2021/06/22 11:44:45;;;;;;;;;13.00;10.00;;;;;18.78;71.08;101025.25;4902976;29;45386;-89
2021/06/22 11:47:31;;;;;;;;;10.00;7.33;;;;;18.72;71.14;101012.88;4908686;29;45523;-88
2021/06/22 11:50:00;;;;;;;;;9.67;9.33;;;;;18.73;71.14;101022.66;4920575;29;45516;-87
2021/06/22 11:52:46;;;;;;;;;11.00;9.33;;;;;18.74;71.86;101021.72;4921272;29;44796;-88
2021/06/22 11:55:14;;;;;;;;;11.33;9.00;;;;;18.75;71.27;101011.97;4920459;29;45297;-87
2021/06/22 11:57:45;;;;;;;;;9.00;7.33;;;;;18.61;71.55;100998.84;4918511;29;45215;-86
2021/06/22 12:00:19;;;;;;;;;8.00;8.00;;;;;18.65;71.94;101010.31;4904841;29;45596;-88
2021/06/22 12:03:02;;;;;;;;;10.00;7.33;;;;;18.75;71.97;101039.50;4906710;29;45291;-89
2021/06/22 12:05:30;;;;;;;;;7.67;7.67;;;;;18.60;71.26;101024.56;4904517;29;45378;-89
2021/06/22 12:08:01;;;;;;;;;9.67;6.33;;;;;18.60;71.26;101029.91;4885022;29;45592;-88
2021/06/22 12:10:50;;;;;;;;;10.00;6.67;;;;;18.65;70.94;101032.50;4901173;29;45364;-88
2021/06/22 12:13:27;;;;;;;;;6.33;6.33;;;;;18.62;70.87;101032.53;4899942;29;45445;-89
2021/06/22 12:15:53;;;;;;;;;7.00;7.00;;;;;18.58;71.13;101031.69;4901421;29;45445;-87
2021/06/22 12:18:18;;;;;;;;;7.00;6.00;;;;;18.53;71.69;101022.84;4884326;29;45262;-90
2021/06/22 12:20:45;;;;;;;;;6.33;6.00;;;;;18.54;71.53;101034.41;4884062;29;47263;-89
2021/06/22 12:23:13;;;;;;;;;7.67;4.33;;;;;18.56;71.51;101044.16;4884151;29;45931;-88
2021/06/22 12:25:51;;;;;;;;;8.33;6.33;;;;;18.44;71.93;101029.19;4901187;29;45483;-89
2021/06/22 12:28:17;;;;;;;;;5.00;4.33;;;;;18.47;71.50;101045.13;4884035;29;45378;-88
2021/06/22 12:30:43;;;;;;;;;7.00;5.67;;;;;18.55;72.05;101063.66;4883977;29;47374;-89
2021/06/22 12:33:19;;;;;;;;;9.00;5.67;;;;;18.56;72.08;101070.75;4883947;29;45327;-90
2021/06/22 12:35:59;;;;;;;;;6.67;6.67;;;;;18.49;71.77;101053.06;4901219;29;45407;-90
2021/06/22 12:38:25;;;;;;;;;5.33;5.33;;;;;18.51;71.64;101070.81;4901325;29;45297;-88
2021/06/22 12:40:58;;;;;;;;;4.33;4.33;;;;;18.50;71.88;101069.06;4884076;29;48341;-88
2021/06/22 12:43:45;;;;;;;;;6.67;6.67;;;;;18.53;71.21;101070.78;4901087;29;45309;-87
2021/06/22 12:46:12;;;;;;;;;12.00;7.00;;;;;18.52;71.38;101075.25;4901084;29;45428;-87
2021/06/22 12:48:38;;;;;;;;;8.00;6.67;;;;;18.53;71.66;101076.09;4900915;29;45373;-87
2021/06/22 12:51:04;;;;;;;;;8.67;6.67;;;;;18.55;71.99;101079.63;4900808;29;45376;-87
2021/06/22 12:53:30;;;;;;;;;5.67;5.67;;;;;18.48;71.81;101068.19;4900661;29;45321;-87
2021/06/22 12:56:14;;;;;;;;;9.33;6.33;;;;;18.51;71.57;101077.91;4900598;29;45270;-86
2021/06/22 12:58:48;;;;;;;;;9.33;7.67;;;;;18.55;71.78;101090.28;4900607;29;45496;-87
2021/06/22 13:01:33;;;;;;;;;8.00;7.00;;;;;18.55;71.40;101098.28;4883202;29;48414;-86
2021/06/22 13:04:00;;;;;;;;;8.33;7.00;;;;;18.49;72.10;101095.66;4883005;29;46044;-87
2021/06/22 13:06:33;;;;;;;;;5.67;5.67;;;;;18.45;72.08;101085.94;4900922;29;45238;-88
2021/06/22 13:09:03;;;;;;;;;6.67;5.33;;;;;18.42;72.11;101088.66;4885020;29;45603;-89
2021/06/22 13:11:31;;;;;;;;;7.00;7.00;;;;;18.51;71.35;101105.41;4902827;29;45318;-89
2021/06/22 13:14:08;;;;;;;;;5.33;4.33;;;;;18.51;71.42;101115.16;4884855;29;45996;-87
2021/06/22 13:16:33;;;;;;;;;4.33;4.33;;;;;18.40;71.26;101110.84;4901455;29;45349;-89
2021/06/22 13:19:00;;;;;;;;;6.33;5.33;;;;;18.33;70.78;101100.25;4901268;29;45351;-87
2021/06/22 13:21:47;;;;;;;;;6.33;6.00;;;;;18.32;70.18;101103.84;4901420;29;46059;-89
2021/06/22 13:24:29;;;;;;;;;7.33;6.67;;;;;18.30;70.14;101105.63;4902147;29;45348;-89
2021/06/22 13:26:59;;;;;;;;;4.67;4.67;;;;;18.33;71.50;101121.56;4901061;29;45341;-87
2021/06/22 13:29:26;;;;;;;;;8.33;5.00;;;;;18.30;71.22;101121.59;4902035;29;45780;-87
2021/06/22 13:31:55;;;;;;;;;5.00;5.00;;;;;18.32;71.54;101133.97;4886959;29;47126;-87
2021/06/22 13:34:25;;;;;;;;;5.33;4.00;;;;;18.25;71.35;101113.66;4907585;29;45286;-87
2021/06/22 13:36:51;;;;;;;;;4.33;4.33;;;;;18.16;71.28;101104.81;4893184;29;45291;-87
2021/06/22 13:39:17;;;;;;;;;7.00;6.00;;;;;18.26;72.03;101118.94;4910572;29;45478;-87
2021/06/22 13:41:51;;;;;;;;;5.00;5.00;;;;;18.22;71.89;101118.97;4908515;29;45370;-88
2021/06/22 13:44:37;;;;;;;;;6.00;6.00;;;;;18.34;71.34;101150.81;4901395;29;45342;-87
2021/06/22 13:47:05;;;;;;;;;7.00;5.33;;;;;18.19;71.32;101113.69;4902964;29;45275;-88
2021/06/22 13:49:42;;;;;;;;;6.00;6.00;;;;;18.28;71.80;101140.22;4903197;29;45570;-87
2021/06/22 13:52:09;;;;;;;;;6.00;6.00;;;;;18.26;72.01;101124.28;4884228;29;46324;-88
2021/06/22 13:54:35;;;;;;;;;7.67;7.00;;;;;18.38;71.94;101146.38;4900758;29;45397;-87
2021/06/22 13:57:03;;;;;;;;;5.00;5.00;;;;;18.36;71.46;101143.69;4901333;29;45454;-88
2021/06/22 13:59:29;;;;;;;;;6.33;4.67;;;;;18.27;71.66;101130.47;4901430;28;45420;-87
2021/06/22 14:01:55;;;;;;;;;5.67;5.33;;;;;18.36;72.08;101143.69;4882767;29;46111;-88
2021/06/22 14:04:20;;;;;;;;;6.00;6.00;;;;;18.24;71.03;101127.84;4901582;29;45348;-88
2021/06/22 14:06:46;;;;;;;;;4.00;4.00;;;;;18.30;71.50;101138.44;4886444;29;45263;-87
2021/06/22 14:09:11;;;;;;;;;5.00;4.33;;;;;18.24;71.10;101131.38;4902362;29;45363;-87
2021/06/22 14:11:36;;;;;;;;;7.67;5.00;;;;;18.17;70.13;101124.34;4906805;29;45816;-87
2021/06/22 14:14:02;;;;;;;;;6.00;5.00;;;;;18.25;70.50;101145.59;4894372;29;45759;-87
2021/06/22 14:16:32;;;;;;;;;6.67;6.67;;;;;18.22;71.39;101145.59;4908647;29;45444;-88
2021/06/22 14:18:58;;;;;;;;;7.67;7.00;;;;;18.14;71.92;101122.56;4885640;29;45447;-87
2021/06/22 14:21:24;;;;;;;;;5.67;5.67;;;;;18.26;72.02;101131.38;4901668;29;45412;-87
2021/06/22 14:23:49;;;;;;;;;7.33;6.00;;;;;18.30;71.91;101142.88;4904013;29;45262;-89
2021/06/22 14:26:15;;;;;;;;;7.33;5.67;;;;;18.22;71.21;101125.19;4903799;29;45255;-87
2021/06/22 14:28:41;;;;;;;;;8.67;6.00;;;;;18.33;71.96;101138.41;4903563;29;45305;-87
2021/06/22 14:31:06;;;;;;;;;9.00;5.33;;;;;18.31;72.38;101126.91;4886423;29;47118;-87
2021/06/22 14:33:32;;;;;;;;;12.00;8.00;;;;;18.47;72.05;101145.38;4886887;29;45319;-88
2021/06/22 14:35:58;;;;;;;;;9.00;9.00;;;;;18.43;71.56;101143.63;4904055;29;45328;-87
2021/06/22 14:38:25;;;;;;;;;7.00;5.67;;;;;18.38;71.27;101133.06;4885973;29;45182;-87
2021/06/22 14:40:51;;;;;;;;;8.00;8.00;;;;;18.38;70.79;101138.38;4886742;29;48465;-88
2021/06/22 14:43:17;;;;;;;;;10.00;9.00;;;;;18.38;70.77;101141.91;4904252;29;45487;-89
2021/06/22 14:45:42;;;;;;;;;6.33;6.33;;;;;18.50;71.43;101172.00;4903481;29;45458;-87
2021/06/22 14:48:08;;;;;;;;;11.33;9.67;;;;;18.38;70.73;101152.56;4902824;29;45447;-87
2021/06/22 14:50:36;;;;;;;;;7.67;6.00;;;;;18.51;70.60;101184.38;4902922;29;47206;-89
2021/06/22 14:53:01;;;;;;;;;7.67;7.67;;;;;18.43;71.24;101180.91;4903342;29;45330;-87
2021/06/22 14:55:29;;;;;;;;;8.00;8.00;;;;;18.42;71.00;101182.72;4902009;29;45393;-88
2021/06/22 14:58:09;;;;;;;;;9.33;8.33;;;;;18.34;70.31;101155.28;4902786;29;45340;-89
2021/06/22 15:00:40;;;;;;;;;8.67;8.67;;;;;18.26;70.88;101152.66;4885296;29;47993;-89
2021/06/22 15:03:06;;;;;;;;;8.00;7.00;;;;;18.24;70.11;101155.34;4885160;29;45840;-88
2021/06/22 15:05:32;;;;;;;;;12.67;9.33;;;;;18.25;70.49;101167.72;4885680;29;45400;-89
2021/06/22 15:07:58;;;;;;;;;9.33;8.00;;;;;18.32;70.24;101181.03;4903121;29;45396;-90
2021/06/22 15:10:26;;;;;;;;;12.00;9.00;;;;;18.28;70.22;101189.00;4885541;29;46998;-89
2021/06/22 15:12:51;;;;;;;;;7.33;7.33;;;;;18.34;70.94;101190.72;4902959;29;45313;-89
2021/06/22 15:15:19;;;;;;;;;8.33;6.67;;;;;18.31;70.63;101187.22;4885513;29;45408;-88
2021/06/22 15:17:44;;;;;;;;;6.00;6.00;;;;;18.31;70.62;101193.44;4902750;29;45325;-88
2021/06/22 15:20:11;;;;;;;;;7.00;7.00;;;;;18.21;69.97;101181.09;4901980;29;46302;-89
2021/06/22 15:22:38;;;;;;;;;6.00;5.67;;;;;18.20;70.47;101171.31;4902705;29;45539;-91
2021/06/22 15:25:08;;;;;;;;;7.00;6.33;;;;;18.22;70.31;101186.41;4902824;29;45221;-91
2021/06/22 15:27:33;;;;;;;;;8.00;6.33;;;;;18.24;70.05;101186.38;4902878;29;45166;-89
2021/06/22 15:30:00;;;;;;;;;6.00;6.00;;;;;18.23;70.81;101184.63;4902851;29;46093;-89
2021/06/22 15:32:25;;;;;;;;;10.00;9.00;;;;;18.15;70.28;101177.53;4902327;29;45452;-90
2021/06/22 15:34:52;;;;;;;;;8.67;6.67;;;;;18.20;70.80;101182.88;4885698;29;45458;-90
2021/06/22 15:37:18;;;;;;;;;6.67;6.00;;;;;18.32;70.50;101207.63;4903124;29;45502;-91
2021/06/22 15:39:43;;;;;;;;;10.33;9.33;;;;;18.16;68.85;101189.06;4885475;29;48525;-90
2021/06/22 15:42:09;;;;;;;;;8.00;6.00;;;;;18.23;69.35;101227.19;4902651;29;45425;-91
2021/06/22 15:44:34;;;;;;;;;7.67;6.67;;;;;18.13;69.24;101221.00;4885055;29;45241;-90
2021/06/22 15:47:00;;;;;;;;;8.33;7.00;;;;;18.10;69.53;101232.56;4889669;28;45607;-91
2021/06/22 15:49:26;;;;;;;;;8.00;8.00;;;;;18.07;68.90;101237.91;4910177;28;45995;-90
2021/06/22 15:51:53;;;;;;;;;13.00;11.00;;;;;18.01;70.15;101230.84;4884547;29;45897;-89
2021/06/22 15:54:18;;;;;;;;;10.67;8.00;;;;;17.99;69.57;101240.59;4884995;29;45389;-89
2021/06/22 15:56:44;;;;;;;;;10.67;9.00;;;;;17.99;69.89;101243.28;4884764;29;45643;-90
2021/06/22 15:59:09;;;;;;;;;8.67;7.33;;;;;17.98;69.57;101240.63;4905522;29;46501;-89
2021/06/22 16:01:35;;;;;;;;;10.00;8.00;;;;;18.03;69.68;101250.34;4889404;29;45427;-91
2021/06/22 16:04:01;;;;;;;;;9.33;9.33;;;;;18.00;70.24;101246.81;4886636;29;45420;-89
2021/06/22 16:06:26;;;;;;;;;11.33;8.67;;;;;17.96;69.75;101247.72;4903978;29;46079;-90
2021/06/22 16:08:52;;;;;;;;;12.33;9.67;;;;;18.07;70.33;101269.81;4886875;29;48417;-88
2021/06/22 16:11:17;;;;;;;;;10.67;9.33;;;;;17.96;70.44;101255.72;4906084;29;45355;-91
2021/06/22 16:13:43;;;;;;;;;11.00;8.33;;;;;17.93;70.43;101257.50;4903846;29;45427;-89
2021/06/22 16:16:08;;;;;;;;;9.00;8.00;;;;;17.97;69.50;101253.03;4904884;29;45384;-89
2021/06/22 16:18:34;;;;;;;;;11.00;8.33;;;;;17.97;70.36;101258.34;4904722;29;45802;-90
2021/06/22 16:21:00;;;;;;;;;11.00;11.00;;;;;18.03;69.15;101266.31;4905604;29;45237;-88
2021/06/22 16:23:26;;;;;;;;;9.00;9.00;;;;;17.97;69.68;101257.47;4904808;29;45262;-84
2021/06/22 16:25:51;;;;;;;;;11.00;11.00;;;;;18.05;69.34;101274.25;4900884;29;45331;-83
2021/06/22 16:28:20;;;;;;;;;9.67;9.67;;;;;18.04;69.62;101264.53;4903189;29;45929;-92
2021/06/22 16:30:49;;;;;;;;;11.00;9.67;;;;;18.00;69.81;101260.13;4890660;29;45499;-90
2021/06/22 16:33:14;;;;;;;;;10.00;10.00;;;;;17.93;69.53;101252.16;4910556;29;45373;-92
2021/06/22 16:35:40;;;;;;;;;12.00;10.67;;;;;17.94;69.35;101261.00;4884564;29;45263;-84
2021/06/22 16:38:05;;;;;;;;;12.33;9.67;;;;;17.97;69.96;101271.66;4900348;29;45927;-84
2021/06/22 16:40:31;;;;;;;;;10.00;10.00;;;;;17.94;70.17;101267.22;4900268;29;45357;-84
2021/06/22 16:42:56;;;;;;;;;13.00;10.33;;;;;17.98;69.90;101275.19;4900512;29;45309;-84
2021/06/22 16:45:22;;;;;;;;;13.67;11.67;;;;;18.00;69.99;101274.28;4900206;29;45350;-83
2021/06/22 16:47:48;;;;;;;;;13.33;12.00;;;;;17.93;69.78;101277.88;4900138;29;45527;-84
2021/06/22 16:50:14;;;;;;;;;10.00;10.00;;;;;17.94;69.36;101285.84;4900180;29;45490;-84
2021/06/22 16:52:40;;;;;;;;;9.00;9.00;;;;;17.94;69.39;101284.94;4900201;29;45371;-84
2021/06/22 16:55:17;;;;;;;;;11.33;10.00;;;;;17.90;69.65;101283.19;4900343;29;45491;-84
2021/06/22 16:57:43;;;;;;;;;10.00;10.00;;;;;17.92;69.48;101295.59;4882718;29;47404;-83
2021/06/22 17:00:09;;;;;;;;;14.00;11.00;;;;;17.93;69.74;101304.47;4899808;28;45455;-83
2021/06/22 17:02:34;;;;;;;;;13.33;13.33;;;;;17.85;69.13;101291.22;4900169;29;45452;-84
2021/06/22 17:05:00;;;;;;;;;11.00;10.67;;;;;17.93;69.73;101299.16;4900082;29;45340;-83
2021/06/22 17:07:25;;;;;;;;;12.00;11.00;;;;;17.86;69.38;101298.28;4900117;29;45348;-84
2021/06/22 17:09:50;;;;;;;;;12.33;11.67;;;;;17.89;69.82;101313.34;4900114;29;45324;-83
2021/06/22 17:12:17;;;;;;;;;14.67;12.67;;;;;17.89;69.96;101316.91;4884206;29;45267;-91
2021/06/22 17:14:43;;;;;;;;;12.00;12.00;;;;;17.78;69.41;101300.09;4903452;29;45546;-91
2021/06/22 17:17:08;;;;;;;;;13.00;11.33;;;;;17.84;69.14;101316.03;4902466;29;46532;-90
2021/06/22 17:19:34;;;;;;;;;9.67;9.67;;;;;17.85;69.36;101316.91;4885607;29;45481;-91
2021/06/22 17:21:59;;;;;;;;;11.67;10.33;;;;;17.79;68.83;101320.47;4910150;28;45471;-91
2021/06/22 17:24:26;;;;;;;;;11.00;9.00;;;;;17.80;68.59;101324.91;4931455;28;45423;-90
2021/06/22 17:26:51;;;;;;;;;10.00;9.33;;;;;17.69;69.46;101315.19;4912148;28;47124;-89
2021/06/22 17:29:17;;;;;;;;;10.00;10.00;;;;;17.59;68.73;101314.34;4924149;28;45482;-90